Time;durP1;ratioP1;P1;durP2;ratioP2;P2;SDS_P1;SDS_P2;PMS_P1;PMS_P2;Temp;Humidity;BMP_temperature;BMP_pressure;BME280_temperature;BME280_humidity;BME280_pressure;Samples;Min_cycle;Max_cycle;Signal;HPM_P1;HPM_P2
2021/03/27 00:00:16;;;;;;;;;;;11.00;90.60;;;;;;5091514;28;19924;-70
2021/03/27 00:02:45;;;;;;;;;;;11.00;90.80;;;;;;5081033;28;19923;-70
2021/03/27 00:05:14;;;;;;;;;;;11.10;91.00;;;;;;5078505;28;19969;-69
2021/03/27 00:07:48;;;;;;;;;;;11.10;91.00;;;;;;5073896;28;19919;-70
2021/03/27 00:10:24;;;;;;;;;;;11.10;91.20;;;;;;5082377;28;20226;-69
2021/03/27 00:13:09;;;;;;;;;;;11.10;91.30;;;;;;5073569;28;19935;-69
2021/03/27 00:15:39;;;;;;;;;;;11.10;91.40;;;;;;5074117;28;19990;-67
2021/03/27 00:18:20;;;;;;;;;;;11.10;91.60;;;;;;5086243;28;19912;-68
2021/03/27 00:20:46;;;;;;;;;;;11.10;91.80;;;;;;5075610;28;19917;-70
2021/03/27 00:23:26;;;;;;;;;;;10.90;92.20;;;;;;5084474;28;20054;-72
2021/03/27 00:25:54;;;;;;;;;;;10.80;92.60;;;;;;5077170;28;20435;-71
2021/03/27 00:28:23;;;;;;;;;;;10.80;93.10;;;;;;5076242;28;19923;-71
2021/03/27 00:30:53;;;;;;;;;;;10.70;93.60;;;;;;5068964;28;19913;-70
2021/03/27 00:33:24;;;;;;;;;;;10.70;94.20;;;;;;5082050;28;19923;-70
2021/03/27 00:35:56;;;;;;;;;;;10.70;94.60;;;;;;5081824;28;19923;-70
2021/03/27 00:38:25;;;;;;;;;;;10.70;95.00;;;;;;5085763;28;19923;-70
2021/03/27 00:40:52;;;;;;;;;;;10.70;95.30;;;;;;5076333;28;19993;-71
2021/03/27 00:43:28;;;;;;;;;;;10.70;95.60;;;;;;5072689;28;19919;-71
2021/03/27 00:45:56;;;;;;;;;;;10.70;96.00;;;;;;5077331;28;19994;-70
2021/03/27 00:48:28;;;;;;;;;;;10.80;96.50;;;;;;5076857;28;20295;-69
2021/03/27 00:51:06;;;;;;;;;;;10.80;97.40;;;;;;5086725;28;20002;-70
2021/03/27 00:53:38;;;;;;;;;;;10.80;98.10;;;;;;5086012;28;19916;-70
2021/03/27 00:56:21;;;;;;;;;;;10.80;99.40;;;;;;5054969;28;19913;-70
2021/03/27 00:58:54;;;;;;;;;;;10.90;99.90;;;;;;5078716;28;20002;-69
2021/03/27 01:01:22;;;;;;;;;;;10.90;99.90;;;;;;5069170;28;19985;-67
2021/03/27 01:03:53;;;;;;;;;;;11.00;99.90;;;;;;5075723;28;19913;-70
2021/03/27 01:06:23;;;;;;;;;;;11.10;99.90;;;;;;5080785;28;19912;-71
2021/03/27 01:08:50;;;;;;;;;;;11.20;99.90;;;;;;5081930;28;19916;-70
2021/03/27 01:11:21;;;;;;;;;;;11.30;99.90;;;;;;5078533;28;19912;-69
2021/03/27 01:13:49;;;;;;;;;;;11.40;99.90;;;;;;5079869;28;19935;-69
2021/03/27 01:16:16;;;;;;;;;;;11.30;99.90;;;;;;5076859;28;19912;-71
2021/03/27 01:18:44;;;;;;;;;;;11.30;99.90;;;;;;5076982;28;19913;-70
2021/03/27 01:21:15;;;;;;;;;;;11.30;99.90;;;;;;5077258;28;19912;-70
2021/03/27 01:23:41;;;;;;;;;;;11.30;99.90;;;;;;5085368;28;19916;-70
2021/03/27 01:26:11;;;;;;;;;;;11.30;99.90;;;;;;5076674;28;20250;-70
2021/03/27 01:28:37;;;;;;;;;;;11.40;99.90;;;;;;5080566;28;19922;-68
2021/03/27 01:31:02;;;;;;;;;;;11.40;99.90;;;;;;5072594;28;20007;-70
2021/03/27 01:33:31;;;;;;;;;;;11.30;99.90;;;;;;5088014;28;19958;-70
2021/03/27 01:36:05;;;;;;;;;;;11.30;99.90;;;;;;5086846;28;19916;-69
2021/03/27 01:38:36;;;;;;;;;;;11.40;99.90;;;;;;5074742;28;19912;-68
2021/03/27 01:41:14;;;;;;;;;;;11.40;99.90;;;;;;5075835;28;19946;-69
2021/03/27 01:43:49;;;;;;;;;;;11.40;99.90;;;;;;5076059;28;20284;-69
2021/03/27 01:46:20;;;;;;;;;;;11.50;99.90;;;;;;5083615;28;19912;-68
2021/03/27 01:48:45;;;;;;;;;;;11.40;99.90;;;;;;5071208;28;20010;-68
2021/03/27 01:51:23;;;;;;;;;;;11.40;99.90;;;;;;5078018;28;20004;-72
2021/03/27 01:54:01;;;;;;;;;;;11.30;99.90;;;;;;5083462;28;20325;-69
2021/03/27 01:56:45;;;;;;;;;;;11.20;99.90;;;;;;5076884;28;19919;-70
2021/03/27 01:59:17;;;;;;;;;;;11.10;99.90;;;;;;5083422;28;20084;-71
2021/03/27 02:01:42;;;;;;;;;;;11.00;99.90;;;;;;5083279;28;19912;-70
2021/03/27 02:04:11;;;;;;;;;;;11.00;99.90;;;;;;5092400;28;19939;-70
2021/03/27 02:06:44;;;;;;;;;;;10.90;99.90;;;;;;5076366;28;19917;-70
2021/03/27 02:09:10;;;;;;;;;;;10.90;99.90;;;;;;5067122;28;20015;-69
2021/03/27 02:11:54;;;;;;;;;;;10.80;99.90;;;;;;5078139;28;20007;-70
2021/03/27 02:14:28;;;;;;;;;;;10.70;99.90;;;;;;5080571;28;20136;-72
2021/03/27 02:17:17;;;;;;;;;;;10.70;99.90;;;;;;5059850;28;19996;-70
2021/03/27 02:20:01;;;;;;;;;;;10.70;99.90;;;;;;5040696;28;20392;-71
2021/03/27 02:22:34;;;;;;;;;;;10.60;99.90;;;;;;5082765;28;19912;-70
2021/03/27 02:25:19;;;;;;;;;;;10.60;99.90;;;;;;5084026;28;19920;-70
2021/03/27 02:28:08;;;;;;;;;;;10.60;99.90;;;;;;5077052;28;19917;-69
2021/03/27 02:30:36;;;;;;;;;;;10.50;99.90;;;;;;5073851;28;19923;-68
2021/03/27 02:33:10;;;;;;;;;;;10.60;99.90;;;;;;5069592;28;19916;-70
2021/03/27 02:35:47;;;;;;;;;;;10.50;99.90;;;;;;5071983;28;19923;-69
2021/03/27 02:38:13;;;;;;;;;;;10.50;99.90;;;;;;5086863;28;19923;-70
2021/03/27 02:40:40;;;;;;;;;;;10.40;99.90;;;;;;5078779;28;19916;-69
2021/03/27 02:43:14;;;;;;;;;;;10.40;99.90;;;;;;5080077;28;20001;-69
2021/03/27 02:45:52;;;;;;;;;;;10.40;99.90;;;;;;5074725;28;19935;-69
2021/03/27 02:48:20;;;;;;;;;;;10.40;99.90;;;;;;5080479;28;19920;-68
2021/03/27 02:50:46;;;;;;;;;;;10.40;99.90;;;;;;5074301;28;19950;-70
2021/03/27 02:53:23;;;;;;;;;;;10.30;99.90;;;;;;5086631;28;20404;-69
2021/03/27 02:56:06;;;;;;;;;;;10.30;99.90;;;;;;5084647;28;19920;-70
2021/03/27 02:58:38;;;;;;;;;;;10.30;99.90;;;;;;5090037;28;19962;-68
2021/03/27 03:01:22;;;;;;;;;;;10.20;99.90;;;;;;5063350;28;20328;-69
2021/03/27 03:03:53;;;;;;;;;;;10.20;99.90;;;;;;5085960;28;19919;-70
2021/03/27 03:06:25;;;;;;;;;;;10.20;99.90;;;;;;5079472;28;20229;-69
2021/03/27 03:09:01;;;;;;;;;;;10.20;99.90;;;;;;5074376;28;19925;-68
2021/03/27 03:11:47;;;;;;;;;;;10.20;99.90;;;;;;5083626;28;19919;-70
2021/03/27 03:14:19;;;;;;;;;;;10.20;99.90;;;;;;5087066;28;19923;-70
2021/03/27 03:17:03;;;;;;;;;;;10.20;99.90;;;;;;5084549;28;20265;-67
2021/03/27 03:19:38;;;;;;;;;;;10.20;99.90;;;;;;5082558;28;19912;-68
2021/03/27 03:22:09;;;;;;;;;;;10.20;99.90;;;;;;5082928;28;20382;-70
2021/03/27 03:24:39;;;;;;;;;;;10.30;99.90;;;;;;5079290;28;20013;-70
2021/03/27 03:27:11;;;;;;;;;;;10.30;99.90;;;;;;5075956;28;19916;-69
2021/03/27 03:29:55;;;;;;;;;;;10.30;99.90;;;;;;5077766;28;19919;-71
2021/03/27 03:32:20;;;;;;;;;;;10.30;99.90;;;;;;5070887;28;19920;-69
2021/03/27 03:34:58;;;;;;;;;;;10.20;99.90;;;;;;5087285;28;20376;-68
2021/03/27 03:37:49;;;;;;;;;;;10.20;99.90;;;;;;5078667;28;19917;-68
2021/03/27 03:40:24;;;;;;;;;;;10.20;99.90;;;;;;5053614;28;20289;-68
2021/03/27 03:42:58;;;;;;;;;;;10.20;99.90;;;;;;5085669;28;19912;-70
2021/03/27 03:45:29;;;;;;;;;;;10.20;99.90;;;;;;5083467;28;19936;-69
2021/03/27 03:48:04;;;;;;;;;;;10.10;99.90;;;;;;5077988;28;19912;-70
2021/03/27 03:50:40;;;;;;;;;;;10.20;99.90;;;;;;5077746;28;19989;-69
2021/03/27 03:53:22;;;;;;;;;;;10.20;99.90;;;;;;5088968;28;19916;-69
2021/03/27 03:55:50;;;;;;;;;;;10.10;99.90;;;;;;5081007;28;20070;-68
2021/03/27 03:58:16;;;;;;;;;;;10.10;99.90;;;;;;5079918;28;19920;-69
2021/03/27 04:00:51;;;;;;;;;;;10.10;99.90;;;;;;5085242;28;20274;-68
2021/03/27 04:03:26;;;;;;;;;;;10.10;99.90;;;;;;5083783;28;20284;-69
2021/03/27 04:05:52;;;;;;;;;;;10.00;99.90;;;;;;5078029;28;20374;-70
2021/03/27 04:08:20;;;;;;;;;;;9.90;99.90;;;;;;5077698;28;19951;-70
2021/03/27 04:10:47;;;;;;;;;;;9.90;99.90;;;;;;5084646;28;20014;-70
2021/03/27 04:13:36;;;;;;;;;;;9.90;99.90;;;;;;5081583;28;19916;-69
2021/03/27 04:16:06;;;;;;;;;;;9.80;99.90;;;;;;5069464;28;19912;-69
2021/03/27 04:18:34;;;;;;;;;;;9.80;99.90;;;;;;5081250;28;19916;-70
2021/03/27 04:21:16;;;;;;;;;;;9.80;99.90;;;;;;5080205;28;20268;-69
2021/03/27 04:24:01;;;;;;;;;;;9.80;99.90;;;;;;5077605;28;19944;-69
2021/03/27 04:26:32;;;;;;;;;;;9.70;99.90;;;;;;5077661;28;19948;-69
2021/03/27 04:29:16;;;;;;;;;;;9.60;99.90;;;;;;5081931;28;20595;-68
2021/03/27 04:31:56;;;;;;;;;;;9.60;99.90;;;;;;5078524;28;19952;-70
2021/03/27 04:34:40;;;;;;;;;;;9.50;99.90;;;;;;5082927;28;19923;-70
2021/03/27 04:37:08;;;;;;;;;;;9.50;99.90;;;;;;5080264;28;19912;-70
2021/03/27 04:39:38;;;;;;;;;;;9.50;99.90;;;;;;5079605;28;20005;-69
2021/03/27 04:42:11;;;;;;;;;;;9.60;99.90;;;;;;5079265;28;20036;-69
2021/03/27 04:44:43;;;;;;;;;;;9.60;99.90;;;;;;5076386;28;19916;-69
2021/03/27 04:47:18;;;;;;;;;;;9.60;99.90;;;;;;5077386;28;19919;-70
2021/03/27 04:49:44;;;;;;;;;;;9.60;99.90;;;;;;5079216;28;20003;-69
2021/03/27 04:52:21;;;;;;;;;;;9.70;99.90;;;;;;5077161;28;19975;-70
2021/03/27 04:54:47;;;;;;;;;;;9.70;99.90;;;;;;5074236;28;19965;-70
2021/03/27 04:57:24;;;;;;;;;;;9.80;99.90;;;;;;5084440;28;20467;-70
2021/03/27 04:59:53;;;;;;;;;;;9.80;99.90;;;;;;5076859;28;19923;-70
2021/03/27 05:02:41;;;;;;;;;;;9.80;99.90;;;;;;5056736;28;19963;-71
2021/03/27 05:05:13;;;;;;;;;;;9.80;99.90;;;;;;5070064;28;19958;-70
2021/03/27 05:07:57;;;;;;;;;;;9.80;99.90;;;;;;5097059;28;19908;-70
2021/03/27 05:10:37;;;;;;;;;;;9.90;99.90;;;;;;5108355;28;20020;-71
2021/03/27 05:13:06;;;;;;;;;;;9.90;99.90;;;;;;5089607;28;19912;-70
2021/03/27 05:15:46;;;;;;;;;;;9.90;99.90;;;;;;5087911;28;19919;-70
2021/03/27 05:18:18;;;;;;;;;;;9.80;99.90;;;;;;5079987;28;19912;-70
2021/03/27 05:20:44;;;;;;;;;;;9.80;99.90;;;;;;5072358;28;19959;-69
2021/03/27 05:23:36;;;;;;;;;;;9.70;99.90;;;;;;5073310;28;20590;-70
2021/03/27 05:26:12;;;;;;;;;;;9.70;99.90;;;;;;5069073;28;19916;-70
2021/03/27 05:28:43;;;;;;;;;;;9.70;99.90;;;;;;5072484;28;20289;-69
2021/03/27 05:31:47;;;;;;;;;;;9.40;99.90;;;;;;5085236;28;19916;-70
2021/03/27 05:34:12;;;;;;;;;;;9.20;99.90;;;;;;5005925;28;20010;-69
2021/03/27 05:36:44;;;;;;;;;;;9.00;99.90;;;;;;5006073;28;20415;-68
2021/03/27 05:39:29;;;;;;;;;;;8.90;99.90;;;;;;5005751;28;19922;-71
2021/03/27 05:41:54;;;;;;;;;;;8.80;99.90;;;;;;5005308;28;19956;-69
2021/03/27 05:44:28;;;;;;;;;;;8.70;99.90;;;;;;5006062;28;19972;-69
2021/03/27 05:47:12;;;;;;;;;;;8.70;99.90;;;;;;5004772;28;19914;-69
2021/03/27 05:49:40;;;;;;;;;;;8.70;99.90;;;;;;5004477;28;19913;-68
2021/03/27 05:52:06;;;;;;;;;;;8.70;99.90;;;;;;5019631;28;19953;-69
2021/03/27 05:54:49;;;;;;;;;;;8.60;99.90;;;;;;5005878;28;19967;-71
2021/03/27 05:57:21;;;;;;;;;;;8.60;99.90;;;;;;5005312;28;19920;-67
2021/03/27 05:59:55;;;;;;;;;;;8.60;99.90;;;;;;5005161;28;19913;-70
2021/03/27 06:02:33;;;;;;;;;;;8.60;99.90;;;;;;5005629;28;19920;-67
2021/03/27 06:05:04;;;;;;;;;;;8.60;99.90;;;;;;5043557;28;19912;-70
2021/03/27 06:07:36;;;;;;;;;;;8.60;99.90;;;;;;5076618;28;19916;-70
2021/03/27 06:10:09;;;;;;;;;;;8.60;99.90;;;;;;5084758;28;19915;-70
2021/03/27 06:12:42;;;;;;;;;;;8.70;99.90;;;;;;5080327;28;19916;-69
2021/03/27 06:15:25;;;;;;;;;;;8.60;99.90;;;;;;5076713;28;19916;-70
2021/03/27 06:18:10;;;;;;;;;;;8.60;99.90;;;;;;5079058;28;19970;-70
2021/03/27 06:20:58;;;;;;;;;;;8.60;99.90;;;;;;5080256;28;19912;-69
2021/03/27 06:23:32;;;;;;;;;;;8.70;99.90;;;;;;5041684;28;19919;-70
2021/03/27 06:26:11;;;;;;;;;;;8.80;99.90;;;;;;5075765;28;19913;-70
2021/03/27 06:28:56;;;;;;;;;;;8.90;99.90;;;;;;5077014;28;19920;-69
2021/03/27 06:31:30;;;;;;;;;;;8.90;99.90;;;;;;5079040;28;19966;-70
2021/03/27 06:33:55;;;;;;;;;;;8.90;99.90;;;;;;5087220;28;19931;-68
2021/03/27 06:36:30;;;;;;;;;;;8.90;99.90;;;;;;5082215;28;19912;-70
2021/03/27 06:39:14;;;;;;;;;;;8.80;99.90;;;;;;5080071;28;19916;-68
2021/03/27 06:41:46;;;;;;;;;;;8.80;99.90;;;;;;5076242;28;19921;-69
2021/03/27 06:44:27;;;;;;;;;;;8.70;99.90;;;;;;5080564;28;19917;-70
2021/03/27 06:46:57;;;;;;;;;;;8.80;99.90;;;;;;5072563;28;20390;-68
2021/03/27 06:49:23;;;;;;;;;;;8.80;99.90;;;;;;5082198;28;20009;-69
2021/03/27 06:51:57;;;;;;;;;;;8.80;99.90;;;;;;5084009;28;20372;-70
2021/03/27 06:54:58;;;;;;;;;;;8.80;99.90;;;;;;5105675;22;19931;-69
2021/03/27 06:57:42;;;;;;;;;;;8.90;99.90;;;;;;5008172;28;19924;-69
2021/03/27 07:00:10;;;;;;;;;;;8.90;99.90;;;;;;5069606;28;19919;-71
2021/03/27 07:03:05;;;;;;;;;;;8.90;99.90;;;;;;5063186;28;19923;-68
2021/03/27 07:05:46;;;;;;;;;;;8.90;99.90;;;;;;4990280;28;20000;-68
2021/03/27 07:08:30;;;;;;;;;;;9.00;99.90;;;;;;5071677;28;19912;-69
2021/03/27 07:11:35;;;;;;;;;;;9.00;99.90;;;;;;5081137;28;19989;-69
2021/03/27 07:14:12;;;;;;;;;;;9.10;99.90;;;;;;5003814;28;20060;-69
2021/03/27 07:16:56;;;;;;;;;;;9.20;99.90;;;;;;4997401;28;19925;-69
2021/03/27 07:19:37;;;;;;;;;;;9.20;99.90;;;;;;5050726;28;20387;-69
2021/03/27 07:22:07;;;;;;;;;;;9.10;99.90;;;;;;5074926;28;20007;-69
2021/03/27 07:24:46;;;;;;;;;;;9.10;99.90;;;;;;5083760;28;19920;-68
2021/03/27 07:27:27;;;;;;;;;;;9.10;99.90;;;;;;5082000;28;20359;-69
2021/03/27 07:30:11;;;;;;;;;;;9.00;99.90;;;;;;5082110;28;20010;-70
2021/03/27 07:32:53;;;;;;;;;;;8.90;99.90;;;;;;5087112;28;19923;-69
2021/03/27 07:35:36;;;;;;;;;;;8.80;99.90;;;;;;5060571;28;19921;-69
2021/03/27 07:38:21;;;;;;;;;;;8.90;99.90;;;;;;5085014;28;19931;-70
2021/03/27 07:40:52;;;;;;;;;;;9.00;99.90;;;;;;5067496;28;20233;-69
2021/03/27 07:43:26;;;;;;;;;;;9.10;99.90;;;;;;5072989;28;19923;-70
2021/03/27 07:46:11;;;;;;;;;;;9.20;99.90;;;;;;5063960;28;19912;-70
2021/03/27 07:48:48;;;;;;;;;;;9.20;99.90;;;;;;5076502;28;19918;-70
2021/03/27 07:51:32;;;;;;;;;;;9.30;99.90;;;;;;5072941;28;19924;-70
2021/03/27 07:53:58;;;;;;;;;;;9.40;99.90;;;;;;5078239;28;19927;-69
2021/03/27 07:56:23;;;;;;;;;;;9.50;99.90;;;;;;5078873;28;19920;-69
2021/03/27 07:58:49;;;;;;;;;;;9.50;99.90;;;;;;5066117;28;19935;-69
2021/03/27 08:01:33;;;;;;;;;;;9.50;99.90;;;;;;5063980;28;19956;-69
2021/03/27 08:04:10;;;;;;;;;;;9.40;99.90;;;;;;5072409;28;19908;-69
2021/03/27 08:06:39;;;;;;;;;;;9.40;99.90;;;;;;5073235;28;19985;-70
2021/03/27 08:09:33;;;;;;;;;;;9.60;99.90;;;;;;5089236;28;19912;-69
2021/03/27 08:12:01;;;;;;;;;;;9.60;99.90;;;;;;5000221;28;19925;-69
2021/03/27 08:14:32;;;;;;;;;;;9.80;99.90;;;;;;5053134;28;19917;-69
2021/03/27 08:17:16;;;;;;;;;;;9.90;99.90;;;;;;5054483;28;19913;-69
2021/03/27 08:20:08;;;;;;;;;;;10.30;99.90;;;;;;5062131;28;19912;-68
2021/03/27 08:22:36;;;;;;;;;;;11.80;99.90;;;;;;5053291;28;19948;-69
2021/03/27 08:25:02;;;;;;;;;;;12.20;99.90;;;;;;5069645;28;20268;-68
2021/03/27 08:27:35;;;;;;;;;;;13.70;99.90;;;;;;5088664;28;19971;-70
2021/03/27 08:30:19;;;;;;;;;;;15.70;99.90;;;;;;5088505;28;19958;-68
2021/03/27 08:32:54;;;;;;;;;;;16.40;97.00;;;;;;5089549;28;20246;-69
2021/03/27 08:35:38;;;;;;;;;;;15.50;94.10;;;;;;5089206;28;19961;-69
2021/03/27 08:38:26;;;;;;;;;;;14.90;94.30;;;;;;5083035;28;19919;-68
2021/03/27 08:41:10;;;;;;;;;;;15.40;92.60;;;;;;5067653;28;19916;-70
2021/03/27 08:43:45;;;;;;;;;;;21.00;75.20;;;;;;5098783;22;19970;-69
2021/03/27 08:46:19;;;;;;;;;;;24.70;99.90;;;;;;5076805;28;19987;-71
2021/03/27 08:49:03;;;;;;;;;;;26.00;99.90;;;;;;5066984;28;20281;-72
2021/03/27 08:51:28;;;;;;;;;;;24.40;99.90;;;;;;5071665;28;20311;-70
2021/03/27 08:54:12;;;;;;;;;;;24.00;99.90;;;;;;5075375;28;19920;-72
2021/03/27 08:56:56;;;;;;;;;;;26.90;99.90;;;;;;5076442;28;19916;-68
2021/03/27 08:59:25;;;;;;;;;;;29.90;99.90;;;;;;5051021;28;19920;-69
2021/03/27 09:01:57;;;;;;;;;;;31.40;99.90;;;;;;5076159;28;19920;-68
2021/03/27 09:04:46;;;;;;;;;;;29.90;99.90;;;;;;5071002;28;19919;-70
2021/03/27 09:07:20;;;;;;;;;;;32.50;99.90;;;;;;5070828;28;19912;-68
2021/03/27 09:09:55;;;;;;;;;;;35.50;99.90;;;;;;5052292;28;19913;-68
2021/03/27 09:12:39;;;;;;;;;;;36.80;99.90;;;;;;5074132;28;19928;-71
2021/03/27 09:15:37;;;;;;;;;;;38.20;99.90;;;;;;5074112;28;19916;-73
2021/03/27 09:18:02;;;;;;;;;;;39.10;99.90;;;;;;5028504;28;19960;-71
2021/03/27 09:20:42;;;;;;;;;;;38.40;92.50;;;;;;5079676;28;19985;-69
2021/03/27 09:23:08;;;;;;;;;;;37.10;65.50;;;;;;5086091;28;19916;-71
2021/03/27 09:25:52;;;;;;;;;;;32.90;39.20;;;;;;5067766;28;19916;-72
2021/03/27 09:28:38;;;;;;;;;;;31.00;28.10;;;;;;5077597;28;19938;-71
2021/03/27 09:31:17;;;;;;;;;;;28.70;14.60;;;;;;5068041;28;19933;-69
2021/03/27 09:34:01;;;;;;;;;;;28.60;13.20;;;;;;5068486;28;19935;-69
2021/03/27 09:36:29;;;;;;;;;;;32.60;16.50;;;;;;5077073;28;19919;-69
2021/03/27 09:38:55;;;;;;;;;;;34.40;14.40;;;;;;5045297;28;19912;-71
2021/03/27 09:41:39;;;;;;;;;;;35.90;13.10;;;;;;5073411;28;19920;-72
2021/03/27 09:44:23;;;;;;;;;;;33.70;2.90;;;;;;5068472;28;19947;-69
2021/03/27 09:47:24;;;;;;;;;;;34.00;1.00;;;;;;5074362;28;20373;-69
2021/03/27 09:49:58;;;;;;;;;;;34.00;1.00;;;;;;5004855;28;19961;-71
2021/03/27 09:52:30;;;;;;;;;;;35.10;1.00;;;;;;5041494;28;20376;-69
2021/03/27 09:55:14;;;;;;;;;;;32.10;1.00;;;;;;5065592;28;19918;-70
2021/03/27 09:57:50;;;;;;;;;;;29.50;1.00;;;;;;5064029;28;19919;-70
2021/03/27 10:00:19;;;;;;;;;;;30.00;1.00;;;;;;5072055;28;20010;-72
2021/03/27 10:03:05;;;;;;;;;;;29.10;1.00;;;;;;5072520;28;20029;-71
2021/03/27 10:05:52;;;;;;;;;;;26.40;1.00;;;;;;5061720;28;19989;-70
2021/03/27 10:08:31;;;;;;;;;;;23.20;1.00;;;;;;5080427;28;19915;-74
2021/03/27 10:11:01;;;;;;;;;;;21.10;1.00;;;;;;5071809;28;19912;-73
2021/03/27 10:13:41;;;;;;;;;;;20.80;1.00;;;;;;5090091;28;19981;-72
2021/03/27 10:16:10;;;;;;;;;;;20.00;1.00;;;;;;5083013;28;20300;-70
2021/03/27 10:18:47;;;;;;;;;;;20.30;1.00;;;;;;5072921;28;20361;-69
2021/03/27 10:21:15;;;;;;;;;;;20.00;1.00;;;;;;5079402;28;19912;-72
2021/03/27 10:23:53;;;;;;;;;;;20.10;1.00;;;;;;5066468;28;19960;-74
2021/03/27 10:26:18;;;;;;;;;;;19.90;1.00;;;;;;5073938;28;20007;-73
2021/03/27 10:28:49;;;;;;;;;;;19.90;1.00;;;;;;5072297;28;20016;-73
2021/03/27 10:31:19;;;;;;;;;;;19.40;1.00;;;;;;5081598;28;20289;-73
2021/03/27 10:33:52;;;;;;;;;;;20.40;1.00;;;;;;5076570;28;19963;-72
2021/03/27 10:36:44;;;;;;;;;;;22.10;1.00;;;;;;5059253;28;20045;-70
2021/03/27 10:39:16;;;;;;;;;;;24.00;1.00;;;;;;5061708;28;20053;-71
2021/03/27 10:41:51;;;;;;;;;;;25.50;1.00;;;;;;5075591;28;20011;-69
2021/03/27 10:44:30;;;;;;;;;;;26.00;1.00;;;;;;5081700;28;19941;-69
2021/03/27 10:46:59;;;;;;;;;;;26.70;1.00;;;;;;5078606;28;19999;-69
2021/03/27 10:49:33;;;;;;;;;;;27.00;1.00;;;;;;5052413;28;20292;-69
2021/03/27 10:52:11;;;;;;;;;;;27.10;1.00;;;;;;5079110;28;19986;-68
2021/03/27 10:54:36;;;;;;;;;;;27.10;1.00;;;;;;5071186;28;20269;-68
2021/03/27 10:57:18;;;;;;;;;;;27.00;1.00;;;;;;5062895;28;19916;-69
2021/03/27 11:00:02;;;;;;;;;;;26.60;1.00;;;;;;5072742;28;19955;-70
2021/03/27 11:02:42;;;;;;;;;;;25.60;1.00;;;;;;5071154;28;19916;-69
2021/03/27 11:05:16;;;;;;;;;;;24.70;1.00;;;;;;5076723;28;19916;-69
2021/03/27 11:08:01;;;;;;;;;;;24.50;1.00;;;;;;5078729;28;19912;-69
2021/03/27 11:10:32;;;;;;;;;;;24.10;1.00;;;;;;5074866;28;19935;-69
2021/03/27 11:13:16;;;;;;;;;;;23.70;1.00;;;;;;5085811;28;20430;-69
2021/03/27 11:16:09;;;;;;;;;;;23.00;1.00;;;;;;5078340;28;19924;-69
2021/03/27 11:19:00;;;;;;;;;;;21.80;1.00;;;;;;5070069;28;19912;-69
2021/03/27 11:21:44;;;;;;;;;;;21.90;1.00;;;;;;5073227;28;19954;-70
2021/03/27 11:24:36;;;;;;;;;;;22.00;1.00;;;;;;5079858;28;20041;-71
2021/03/27 11:27:01;;;;;;;;;;;22.10;1.00;;;;;;5034776;28;19916;-71
2021/03/27 11:29:34;;;;;;;;;;;22.90;1.00;;;;;;5070513;28;19939;-69
2021/03/27 11:31:59;;;;;;;;;;;23.30;1.00;;;;;;5074200;28;19913;-70
2021/03/27 11:34:44;;;;;;;;;;;23.80;1.00;;;;;;5073327;28;19927;-71
2021/03/27 11:37:16;;;;;;;;;;;23.70;1.00;;;;;;5077231;28;19919;-71
2021/03/27 11:39:48;;;;;;;;;;;23.60;1.00;;;;;;5073421;28;19931;-69
2021/03/27 11:42:32;;;;;;;;;;;23.60;1.00;;;;;;5071972;28;19923;-71
2021/03/27 11:45:05;;;;;;;;;;;23.50;1.00;;;;;;5070026;28;19908;-71
2021/03/27 11:47:46;;;;;;;;;;;23.70;1.00;;;;;;5066105;28;20393;-72
2021/03/27 11:50:21;;;;;;;;;;;23.90;1.00;;;;;;5061353;28;20045;-72
2021/03/27 11:52:50;;;;;;;;;;;24.10;1.00;;;;;;5068430;28;19974;-70
2021/03/27 11:55:15;;;;;;;;;;;24.40;1.00;;;;;;5068511;28;20412;-72
2021/03/27 11:57:50;;;;;;;;;;;24.10;1.00;;;;;;5069295;28;19947;-72
2021/03/27 12:00:48;;;;;;;;;;;23.60;1.00;;;;;;5069344;28;19908;-71
2021/03/27 12:03:28;;;;;;;;;;;23.20;1.00;;;;;;5050729;28;20779;-71
2021/03/27 12:06:12;;;;;;;;;;;22.80;1.00;;;;;;5050363;28;20058;-70
2021/03/27 12:08:47;;;;;;;;;;;22.60;1.00;;;;;;5051398;28;19913;-72
2021/03/27 12:11:19;;;;;;;;;;;22.10;1.00;;;;;;5049132;28;19909;-72
2021/03/27 12:13:55;;;;;;;;;;;21.80;1.00;;;;;;5060358;28;19924;-72
2021/03/27 12:16:23;;;;;;;;;;;21.70;1.00;;;;;;5076907;28;19931;-73
2021/03/27 12:19:01;;;;;;;;;;;21.70;1.00;;;;;;5069921;28;20007;-73
2021/03/27 12:21:26;;;;;;;;;;;21.30;1.00;;;;;;5078993;28;19912;-72
2021/03/27 12:23:59;;;;;;;;;;;21.10;1.00;;;;;;5072107;28;19961;-73
2021/03/27 12:26:24;;;;;;;;;;;20.70;1.00;;;;;;5070361;28;19924;-72
2021/03/27 12:28:56;;;;;;;;;;;20.50;1.00;;;;;;5070924;28;19912;-73
2021/03/27 12:31:28;;;;;;;;;;;20.30;1.00;;;;;;5063938;28;19913;-73
2021/03/27 12:34:16;;;;;;;;;;;20.40;1.00;;;;;;5077063;28;19917;-72
2021/03/27 12:36:49;;;;;;;;;;;20.20;1.00;;;;;;5056412;28;20365;-72
2021/03/27 12:39:15;;;;;;;;;;;19.90;1.00;;;;;;5068350;28;19913;-73
2021/03/27 12:41:59;;;;;;;;;;;19.60;1.00;;;;;;5067072;28;20496;-73
2021/03/27 12:44:37;;;;;;;;;;;19.50;1.00;;;;;;5067876;28;19920;-73
2021/03/27 12:47:21;;;;;;;;;;;19.40;1.00;;;;;;5067614;28;20012;-72
2021/03/27 12:50:12;;;;;;;;;;;19.30;1.00;;;;;;5067908;28;19986;-70
2021/03/27 12:52:43;;;;;;;;;;;19.30;1.00;;;;;;5065084;28;20292;-70
2021/03/27 12:55:21;;;;;;;;;;;19.20;1.00;;;;;;5069212;28;19995;-70
2021/03/27 12:58:03;;;;;;;;;;;19.30;1.00;;;;;;5068874;28;19912;-70
2021/03/27 13:00:47;;;;;;;;;;;19.30;1.00;;;;;;5068033;28;20464;-72
2021/03/27 13:03:18;;;;;;;;;;;19.00;1.00;;;;;;5068328;28;20255;-72
2021/03/27 13:05:49;;;;;;;;;;;18.80;1.00;;;;;;5068730;28;19939;-69
2021/03/27 13:08:17;;;;;;;;;;;18.50;1.00;;;;;;5068363;28;19974;-71
2021/03/27 13:11:01;;;;;;;;;;;18.40;1.00;;;;;;5067513;28;20013;-68
2021/03/27 13:13:34;;;;;;;;;;;18.20;1.00;;;;;;5068080;28;19924;-68
2021/03/27 13:16:09;;;;;;;;;;;18.10;1.00;;;;;;5067322;28;19913;-70
2021/03/27 13:18:48;;;;;;;;;;;17.80;1.00;;;;;;5067672;28;20347;-69
2021/03/27 13:21:28;;;;;;;;;;;17.70;1.00;;;;;;5068092;28;19912;-69
2021/03/27 13:24:14;;;;;;;;;;;17.70;1.00;;;;;;5049756;28;20412;-69
2021/03/27 13:26:41;;;;;;;;;;;17.80;1.00;;;;;;5053081;28;19908;-71
2021/03/27 13:29:35;;;;;;;;;;;18.00;1.00;;;;;;5067186;28;19908;-70
2021/03/27 13:32:15;;;;;;;;;;;17.60;1.00;;;;;;5066972;28;19964;-69
2021/03/27 13:34:47;;;;;;;;;;;17.10;1.00;;;;;;5067496;28;19916;-72
2021/03/27 13:37:12;;;;;;;;;;;16.80;1.00;;;;;;5068031;28;19952;-70
2021/03/27 13:39:43;;;;;;;;;;;16.50;1.00;;;;;;5068217;28;19948;-70
2021/03/27 13:42:12;;;;;;;;;;;16.40;1.00;;;;;;5066944;28;20007;-70
2021/03/27 13:44:52;;;;;;;;;;;16.40;1.00;;;;;;5068413;28;20286;-72
2021/03/27 13:47:22;;;;;;;;;;;16.60;1.00;;;;;;5066976;28;19960;-70
2021/03/27 13:50:14;;;;;;;;;;;16.60;1.00;;;;;;5067330;28;19960;-70
2021/03/27 13:52:46;;;;;;;;;;;16.50;1.00;;;;;;5063944;28;19923;-69
2021/03/27 13:55:18;;;;;;;;;;;16.40;1.00;;;;;;5067797;28;19909;-70
2021/03/27 13:57:56;;;;;;;;;;;16.10;1.00;;;;;;5067427;28;19912;-69
2021/03/27 14:00:27;;;;;;;;;;;15.90;53.60;;;;;;5066654;28;19972;-71
2021/03/27 14:03:05;;;;;;;;;;;15.60;33.60;;;;;;5066855;28;20319;-71
2021/03/27 14:05:31;;;;;;;;;;;;;;;;;;5067681;28;19912;-69
2021/03/27 14:08:12;;;;;;;;;;;15.50;1.00;;;;;;5066997;28;20223;-70
2021/03/27 14:10:37;;;;;;;;;;;15.40;1.00;;;;;;5066737;28;19948;-68
2021/03/27 14:13:11;;;;;;;;;;;15.40;1.00;;;;;;5068225;28;20389;-71
2021/03/27 14:15:57;;;;;;;;;;;15.30;1.00;;;;;;5067242;28;19915;-71
2021/03/27 14:18:27;;;;;;;;;;;15.10;1.00;;;;;;5026264;28;19916;-70
2021/03/27 14:21:11;;;;;;;;;;;14.90;1.00;;;;;;5066676;28;20003;-69
2021/03/27 14:24:01;;;;;;;;;;;14.70;1.00;;;;;;5068064;28;20037;-71
2021/03/27 14:26:36;;;;;;;;;;;14.50;1.00;;;;;;5066984;28;19966;-70
2021/03/27 14:29:09;;;;;;;;;;;14.40;1.00;;;;;;5067643;28;19920;-69
2021/03/27 14:31:41;;;;;;;;;;;14.30;1.00;;;;;;5067036;28;19908;-72
2021/03/27 14:34:25;;;;;;;;;;;14.20;1.00;;;;;;5067972;28;20772;-68
2021/03/27 14:37:02;;;;;;;;;;;14.00;1.00;;;;;;5068062;28;20327;-71
2021/03/27 14:39:40;;;;;;;;;;;13.80;1.00;;;;;;5067482;28;20369;-68
2021/03/27 14:42:08;;;;;;;;;;;14.00;1.00;;;;;;5066513;28;20245;-70
2021/03/27 14:44:45;;;;;;;;;;;14.10;1.00;;;;;;5068293;28;19908;-69
2021/03/27 14:47:11;;;;;;;;;;;14.30;1.00;;;;;;5066360;28;19924;-72
2021/03/27 14:50:02;;;;;;;;;;;14.30;1.00;;;;;;5066817;28;19909;-72
2021/03/27 14:52:46;;;;;;;;;;;14.50;1.00;;;;;;5039354;28;19917;-70
2021/03/27 14:55:22;;;;;;;;;;;14.70;1.00;;;;;;5070897;28;19920;-72
2021/03/27 14:57:51;;;;;;;;;;;14.80;1.00;;;;;;5070674;28;19963;-71
2021/03/27 15:00:22;;;;;;;;;;;14.80;1.00;;;;;;5069066;28;19917;-69
2021/03/27 15:03:04;;;;;;;;;;;14.90;1.00;;;;;;5070666;28;19924;-69
2021/03/27 15:05:30;;;;;;;;;;;14.90;1.00;;;;;;5067736;28;19913;-71
2021/03/27 15:07:56;;;;;;;;;;;14.70;1.00;;;;;;5051077;28;19909;-70
2021/03/27 15:10:34;;;;;;;;;;;14.60;1.00;;;;;;5048746;28;20377;-70
2021/03/27 15:13:18;;;;;;;;;;;14.40;1.00;;;;;;5050696;28;19919;-68
2021/03/27 15:15:50;;;;;;;;;;;14.40;1.00;;;;;;5055992;28;20440;-69